sensor_id;sensor_type;location;lat;lon;timestamp;pressure;altitude;pressure_sealevel;temperature;humidity
22311;BME280;11323;49.610;11.016;2022-08-05T00:00:49;97761.31;;;26.89;40.16
22311;BME280;11323;49.610;11.016;2022-08-05T00:05:49;97752.19;;;26.85;40.24
22311;BME280;11323;49.610;11.016;2022-08-05T00:10:50;97762.38;;;26.88;40.23
22311;BME280;11323;49.610;11.016;2022-08-05T00:15:50;97752.19;;;26.85;40.25
22311;BME280;11323;49.610;11.016;2022-08-05T00:20:50;97751.66;;;26.83;40.24
22311;BME280;11323;49.610;11.016;2022-08-05T00:25:51;97744.41;;;26.78;40.72
22311;BME280;11323;49.610;11.016;2022-08-05T00:30:51;97752.69;;;26.77;40.48
22311;BME280;11323;49.610;11.016;2022-08-05T00:35:52;97742.44;;;26.68;40.60
22311;BME280;11323;49.610;11.016;2022-08-05T00:40:55;97735.75;;;26.66;40.71
22311;BME280;11323;49.610;11.016;2022-08-05T00:45:55;97734.72;;;26.67;40.73
22311;BME280;11323;49.610;11.016;2022-08-05T00:50:56;97733.91;;;26.66;40.76
22311;BME280;11323;49.610;11.016;2022-08-05T00:55:56;97720.50;;;26.61;40.75
22311;BME280;11323;49.610;11.016;2022-08-05T01:00:57;97718.63;;;26.57;41.00
22311;BME280;11323;49.610;11.016;2022-08-05T01:05:57;97720.75;;;26.55;41.06
22311;BME280;11323;49.610;11.016;2022-08-05T01:11:18;97716.44;;;26.48;41.59
22311;BME280;11323;49.610;11.016;2022-08-05T01:16:38;97711.34;;;26.47;41.30
22311;BME280;11323;49.610;11.016;2022-08-05T01:32:08;97705.72;;;26.43;41.68
22311;BME280;11323;49.610;11.016;2022-08-05T01:37:14;97703.88;;;26.49;41.45
22311;BME280;11323;49.610;11.016;2022-08-05T01:42:18;97703.56;;;26.40;41.88
22311;BME280;11323;49.610;11.016;2022-08-05T01:47:20;97703.31;;;26.42;41.93
22311;BME280;11323;49.610;11.016;2022-08-05T01:52:21;97709.19;;;26.44;41.98
22311;BME280;11323;49.610;11.016;2022-08-05T01:57:25;97715.06;;;26.41;42.04
22311;BME280;11323;49.610;11.016;2022-08-05T02:02:28;97715.06;;;26.41;42.04
22311;BME280;11323;49.610;11.016;2022-08-05T02:07:30;97714.78;;;26.37;42.46
22311;BME280;11323;49.610;11.016;2022-08-05T02:18:15;97708.59;;;26.36;42.68
22311;BME280;11323;49.610;11.016;2022-08-05T02:23:19;97710.16;;;26.27;42.52
22311;BME280;11323;49.610;11.016;2022-08-05T02:28:27;97713.38;;;26.29;42.80
22311;BME280;11323;49.610;11.016;2022-08-05T02:33:29;97707.97;;;26.19;43.00
22311;BME280;11323;49.610;11.016;2022-08-05T02:38:31;97707.47;;;26.22;42.85
22311;BME280;11323;49.610;11.016;2022-08-05T02:43:36;97717.00;;;26.13;43.40
22311;BME280;11323;49.610;11.016;2022-08-05T02:48:37;97698.75;;;26.04;43.52
22311;BME280;11323;49.610;11.016;2022-08-05T02:53:38;97698.50;;;26.06;43.77
22311;BME280;11323;49.610;11.016;2022-08-05T02:58:39;97698.19;;;25.97;44.08
22311;BME280;11323;49.610;11.016;2022-08-05T03:03:41;97696.50;;;25.91;44.48
22311;BME280;11323;49.610;11.016;2022-08-05T03:08:42;97695.72;;;25.90;44.29
22311;BME280;11323;49.610;11.016;2022-08-05T03:13:43;97699.06;;;25.75;44.94
22311;BME280;11323;49.610;11.016;2022-08-05T03:18:44;97748.44;;;26.05;44.08
22311;BME280;11323;49.610;11.016;2022-08-05T03:23:45;97770.00;;;25.99;44.03
22311;BME280;11323;49.610;11.016;2022-08-05T03:28:46;97754.19;;;25.65;44.37
22311;BME280;11323;49.610;11.016;2022-08-05T03:33:46;97757.06;;;25.58;45.00
22311;BME280;11323;49.610;11.016;2022-08-05T03:38:47;97755.34;;;25.74;44.89
22311;BME280;11323;49.610;11.016;2022-08-05T03:43:47;97759.41;;;25.77;44.70
22311;BME280;11323;49.610;11.016;2022-08-05T03:48:47;97754.84;;;25.50;45.38
22311;BME280;11323;49.610;11.016;2022-08-05T03:53:54;97747.91;;;25.49;45.79
22311;BME280;11323;49.610;11.016;2022-08-05T03:59:02;97755.34;;;25.02;46.82
22311;BME280;11323;49.610;11.016;2022-08-05T04:04:05;97763.03;;;25.65;45.56
22311;BME280;11323;49.610;11.016;2022-08-05T04:09:06;97772.22;;;25.80;45.63
22311;BME280;11323;49.610;11.016;2022-08-05T04:14:07;97759.50;;;25.37;46.00
22311;BME280;11323;49.610;11.016;2022-08-05T04:19:10;97742.88;;;25.30;46.41
22311;BME280;11323;49.610;11.016;2022-08-05T04:24:12;97757.88;;;25.86;45.07
22311;BME280;11323;49.610;11.016;2022-08-05T04:29:12;97753.84;;;25.83;45.37
22311;BME280;11323;49.610;11.016;2022-08-05T04:34:13;63548.38;;;-146.54;100.00
22311;BME280;11323;49.610;11.016;2022-08-05T04:39:13;97764.72;;;22.87;55.34
22311;BME280;11323;49.610;11.016;2022-08-05T04:44:14;97773.69;;;23.09;55.49
22311;BME280;11323;49.610;11.016;2022-08-05T04:49:15;97762.34;;;23.14;53.38
22311;BME280;11323;49.610;11.016;2022-08-05T04:54:15;97770.31;;;23.38;52.90
22311;BME280;11323;49.610;11.016;2022-08-05T04:59:16;97774.81;;;24.12;51.49
22311;BME280;11323;49.610;11.016;2022-08-05T05:04:16;97786.47;;;24.23;52.74
22311;BME280;11323;49.610;11.016;2022-08-05T05:09:17;97789.53;;;24.15;51.64
22311;BME280;11323;49.610;11.016;2022-08-05T05:14:17;97801.38;;;25.14;53.37
22311;BME280;11323;49.610;11.016;2022-08-05T05:19:17;97823.09;;;25.46;51.86
22311;BME280;11323;49.610;11.016;2022-08-05T05:24:18;97845.91;;;25.36;49.82
22311;BME280;11323;49.610;11.016;2022-08-05T05:29:20;97857.31;;;25.09;48.70
22311;BME280;11323;49.610;11.016;2022-08-05T05:34:21;97845.66;;;25.16;48.49
22311;BME280;11323;49.610;11.016;2022-08-05T05:39:22;97819.09;;;25.26;48.85
22311;BME280;11323;49.610;11.016;2022-08-05T05:44:22;97816.94;;;25.23;47.99
22311;BME280;11323;49.610;11.016;2022-08-05T05:49:22;97832.13;;;25.22;47.79
22311;BME280;11323;49.610;11.016;2022-08-05T05:54:23;97856.09;;;25.39;47.27
22311;BME280;11323;49.610;11.016;2022-08-05T05:59:23;97866.03;;;25.66;46.79
22311;BME280;11323;49.610;11.016;2022-08-05T06:04:24;97888.78;;;25.96;46.05
22311;BME280;11323;49.610;11.016;2022-08-05T06:09:24;97943.84;;;25.58;47.43
22311;BME280;11323;49.610;11.016;2022-08-05T06:14:24;97934.34;;;25.28;47.54
22311;BME280;11323;49.610;11.016;2022-08-05T06:19:26;97945.63;;;25.52;47.35
22311;BME280;11323;49.610;11.016;2022-08-05T06:24:26;97953.56;;;25.64;47.13
22311;BME280;11323;49.610;11.016;2022-08-05T06:29:27;97963.47;;;25.69;47.01
22311;BME280;11323;49.610;11.016;2022-08-05T06:34:27;97974.94;;;25.69;46.93
22311;BME280;11323;49.610;11.016;2022-08-05T06:39:28;97983.03;;;25.74;46.86
22311;BME280;11323;49.610;11.016;2022-08-05T06:44:28;97994.59;;;25.80;47.19
22311;BME280;11323;49.610;11.016;2022-08-05T06:49:29;97997.81;;;25.82;46.89
22311;BME280;11323;49.610;11.016;2022-08-05T06:54:29;98012.34;;;25.92;46.74
22311;BME280;11323;49.610;11.016;2022-08-05T06:59:30;98011.34;;;25.98;47.41
22311;BME280;11323;49.610;11.016;2022-08-05T07:04:30;98013.94;;;26.10;46.57
22311;BME280;11323;49.610;11.016;2022-08-05T07:09:30;98024.56;;;26.27;46.25
22311;BME280;11323;49.610;11.016;2022-08-05T07:14:31;98028.09;;;26.32;45.66
22311;BME280;11323;49.610;11.016;2022-08-05T07:19:50;98037.84;;;26.44;45.37
22311;BME280;11323;49.610;11.016;2022-08-05T07:24:53;98036.53;;;26.46;45.38
22311;BME280;11323;49.610;11.016;2022-08-05T07:29:56;98028.81;;;26.50;45.02
22311;BME280;11323;49.610;11.016;2022-08-05T07:34:56;98030.25;;;26.85;44.55
22311;BME280;11323;49.610;11.016;2022-08-05T07:39:57;98026.69;;;27.82;42.07
22311;BME280;11323;49.610;11.016;2022-08-05T07:44:57;98026.69;;;27.82;42.07
22311;BME280;11323;49.610;11.016;2022-08-05T07:49:58;98054.66;;;29.95;38.05
22311;BME280;11323;49.610;11.016;2022-08-05T07:54:58;98050.16;;;29.28;39.13
22311;BME280;11323;49.610;11.016;2022-08-05T07:59:59;98069.69;;;30.06;37.59
22311;BME280;11323;49.610;11.016;2022-08-05T08:05:00;63548.38;;;-146.54;100.00
22311;BME280;11323;49.610;11.016;2022-08-05T08:10:00;98069.69;;;30.06;37.59
22311;BME280;11323;49.610;11.016;2022-08-05T08:15:01;98041.91;;;32.67;33.07
22311;BME280;11323;49.610;11.016;2022-08-05T08:20:02;98043.56;;;32.25;33.46
22311;BME280;11323;49.610;11.016;2022-08-05T08:25:05;63548.38;;;-146.54;33.46
22311;BME280;11323;49.610;11.016;2022-08-05T08:30:06;98053.78;;;34.12;30.59
22311;BME280;11323;49.610;11.016;2022-08-05T08:35:09;63548.38;;;-146.54;100.00
22311;BME280;11323;49.610;11.016;2022-08-05T08:40:10;63548.38;;;-146.54;100.00
22311;BME280;11323;49.610;11.016;2022-08-05T08:45:11;63548.38;;;-146.54;100.00
22311;BME280;11323;49.610;11.016;2022-08-05T08:50:12;98064.66;;;35.85;27.69
22311;BME280;11323;49.610;11.016;2022-08-05T08:55:13;98070.16;;;31.83;34.32
22311;BME280;11323;49.610;11.016;2022-08-05T09:00:14;98078.56;;;29.91;37.69
22311;BME280;11323;49.610;11.016;2022-08-05T09:05:15;98078.56;;;29.91;37.69
22311;BME280;11323;49.610;11.016;2022-08-05T09:10:16;98072.59;;;28.65;40.39
22311;BME280;11323;49.610;11.016;2022-08-05T09:15:17;98050.84;;;28.56;40.77
22311;BME280;11323;49.610;11.016;2022-08-05T09:20:17;98064.22;;;28.41;41.31
22311;BME280;11323;49.610;11.016;2022-08-05T09:25:18;98075.47;;;28.38;41.49
22311;BME280;11323;49.610;11.016;2022-08-05T09:30:19;98063.94;;;28.37;41.59
22311;BME280;11323;49.610;11.016;2022-08-05T09:35:20;98059.63;;;28.26;42.05
22311;BME280;11323;49.610;11.016;2022-08-05T09:40:39;98048.84;;;28.10;42.35
22311;BME280;11323;49.610;11.016;2022-08-05T09:45:41;98040.78;;;28.10;42.65
22311;BME280;11323;49.610;11.016;2022-08-05T09:50:42;98042.66;;;28.10;42.62
22311;BME280;11323;49.610;11.016;2022-08-05T09:56:00;98039.13;;;28.04;42.64
22311;BME280;11323;49.610;11.016;2022-08-05T10:01:03;98021.69;;;27.96;42.93
22311;BME280;11323;49.610;11.016;2022-08-05T10:06:08;63548.38;;;-146.54;100.00
22311;BME280;11323;49.610;11.016;2022-08-05T10:11:15;63548.38;;;-146.54;100.00
22311;BME280;11323;49.610;11.016;2022-08-05T10:16:32;63548.38;;;-146.54;100.00
22311;BME280;11323;49.610;11.016;2022-08-05T10:21:33;63548.38;;;-146.54;100.00
22311;BME280;11323;49.610;11.016;2022-08-05T10:26:33;63548.38;;;-146.54;100.00
22311;BME280;11323;49.610;11.016;2022-08-05T10:31:35;63548.38;;;-146.54;100.00
22311;BME280;11323;49.610;11.016;2022-08-05T10:36:38;63548.38;;;-146.54;100.00
22311;BME280;11323;49.610;11.016;2022-08-05T10:41:47;63548.38;;;-146.54;100.00
22311;BME280;11323;49.610;11.016;2022-08-05T10:46:54;63548.38;;;-146.54;100.00
22311;BME280;11323;49.610;11.016;2022-08-05T10:51:55;63548.38;;;-146.54;100.00
22311;BME280;11323;49.610;11.016;2022-08-05T10:56:56;63548.38;;;-146.54;100.00
22311;BME280;11323;49.610;11.016;2022-08-05T11:02:24;63548.38;;;-146.54;100.00
22311;BME280;11323;49.610;11.016;2022-08-05T11:07:24;63548.38;;;-146.54;100.00
22311;BME280;11323;49.610;11.016;2022-08-05T11:17:44;63548.38;;;-146.54;100.00
22311;BME280;11323;49.610;11.016;2022-08-05T11:22:46;63548.38;;;-146.54;100.00
22311;BME280;11323;49.610;11.016;2022-08-05T11:27:48;63548.38;;;-146.54;100.00
22311;BME280;11323;49.610;11.016;2022-08-05T11:32:48;63548.38;;;-146.54;100.00
22311;BME280;11323;49.610;11.016;2022-08-05T11:42:54;63548.38;;;-146.54;100.00
22311;BME280;11323;49.610;11.016;2022-08-05T11:47:56;63548.38;;;-146.54;100.00
22311;BME280;11323;49.610;11.016;2022-08-05T11:53:03;63548.38;;;-146.54;100.00
22311;BME280;11323;49.610;11.016;2022-08-05T11:58:04;63548.38;;;-146.54;100.00
22311;BME280;11323;49.610;11.016;2022-08-05T12:03:15;63548.38;;;-146.54;100.00
22311;BME280;11323;49.610;11.016;2022-08-05T12:08:15;63548.38;;;-146.54;100.00
22311;BME280;11323;49.610;11.016;2022-08-05T12:13:16;63548.38;;;-146.54;100.00
22311;BME280;11323;49.610;11.016;2022-08-05T12:18:27;63548.38;;;-146.54;100.00
22311;BME280;11323;49.610;11.016;2022-08-05T12:23:29;63548.38;;;-146.54;100.00
22311;BME280;11323;49.610;11.016;2022-08-05T12:28:33;63548.38;;;-146.54;100.00
22311;BME280;11323;49.610;11.016;2022-08-05T12:33:35;63548.38;;;-146.54;100.00
22311;BME280;11323;49.610;11.016;2022-08-05T12:38:37;63548.38;;;-146.54;100.00
22311;BME280;11323;49.610;11.016;2022-08-05T12:43:57;63548.38;;;-146.54;100.00
22311;BME280;11323;49.610;11.016;2022-08-05T12:49:08;63548.38;;;-146.54;100.00
22311;BME280;11323;49.610;11.016;2022-08-05T12:54:10;63548.38;;;-146.54;100.00
22311;BME280;11323;49.610;11.016;2022-08-05T12:59:22;63548.38;;;-146.54;100.00
22311;BME280;11323;49.610;11.016;2022-08-05T13:04:27;63548.38;;;-146.54;100.00
22311;BME280;11323;49.610;11.016;2022-08-05T13:09:28;63548.38;;;-146.54;100.00
22311;BME280;11323;49.610;11.016;2022-08-05T13:14:36;63548.38;;;-146.54;100.00
22311;BME280;11323;49.610;11.016;2022-08-05T13:19:37;63548.38;;;-146.54;100.00
22311;BME280;11323;49.610;11.016;2022-08-05T13:24:37;63548.38;;;-146.54;100.00
22311;BME280;11323;49.610;11.016;2022-08-05T13:29:38;63548.38;;;-146.54;100.00
22311;BME280;11323;49.610;11.016;2022-08-05T13:34:38;63548.38;;;-146.54;100.00
22311;BME280;11323;49.610;11.016;2022-08-05T13:39:38;63548.38;;;-146.54;100.00
22311;BME280;11323;49.610;11.016;2022-08-05T13:44:39;63548.38;;;-146.54;100.00
22311;BME280;11323;49.610;11.016;2022-08-05T13:49:40;63548.38;;;-146.54;100.00
22311;BME280;11323;49.610;11.016;2022-08-05T13:54:41;63548.38;;;-146.54;100.00
22311;BME280;11323;49.610;11.016;2022-08-05T13:59:42;63548.38;;;-146.54;100.00
22311;BME280;11323;49.610;11.016;2022-08-05T14:04:44;63548.38;;;-146.54;100.00
22311;BME280;11323;49.610;11.016;2022-08-05T14:10:06;63548.38;;;-146.54;100.00
22311;BME280;11323;49.610;11.016;2022-08-05T14:15:07;63548.38;;;-146.54;100.00
22311;BME280;11323;49.610;11.016;2022-08-05T14:20:08;63548.38;;;-146.54;100.00
22311;BME280;11323;49.610;11.016;2022-08-05T14:25:09;63548.38;;;-146.54;100.00
22311;BME280;11323;49.610;11.016;2022-08-05T14:30:09;63548.38;;;-146.54;100.00
22311;BME280;11323;49.610;11.016;2022-08-05T14:35:10;63548.38;;;-146.54;100.00
22311;BME280;11323;49.610;11.016;2022-08-05T14:40:14;63548.38;;;-146.54;100.00
22311;BME280;11323;49.610;11.016;2022-08-05T14:45:14;63548.38;;;-146.54;100.00
22311;BME280;11323;49.610;11.016;2022-08-05T14:50:14;63548.38;;;-146.54;100.00
22311;BME280;11323;49.610;11.016;2022-08-05T14:55:15;63548.38;;;-146.54;100.00
22311;BME280;11323;49.610;11.016;2022-08-05T15:00:15;63548.38;;;-146.54;100.00
22311;BME280;11323;49.610;11.016;2022-08-05T15:05:16;63548.38;;;-146.54;100.00
22311;BME280;11323;49.610;11.016;2022-08-05T15:10:16;63548.38;;;-146.54;100.00
22311;BME280;11323;49.610;11.016;2022-08-05T15:15:16;63548.38;;;-146.54;100.00
22311;BME280;11323;49.610;11.016;2022-08-05T15:20:17;63548.38;;;-146.54;100.00
22311;BME280;11323;49.610;11.016;2022-08-05T15:25:17;63548.38;;;-146.54;100.00
22311;BME280;11323;49.610;11.016;2022-08-05T15:30:19;63548.38;;;-146.54;100.00
22311;BME280;11323;49.610;11.016;2022-08-05T15:35:20;63548.38;;;-146.54;100.00
22311;BME280;11323;49.610;11.016;2022-08-05T15:40:20;63548.38;;;-146.54;100.00
22311;BME280;11323;49.610;11.016;2022-08-05T15:45:21;63548.38;;;-146.54;100.00
22311;BME280;11323;49.610;11.016;2022-08-05T15:50:21;63548.38;;;-146.54;100.00
22311;BME280;11323;49.610;11.016;2022-08-05T15:55:22;63548.38;;;-146.54;100.00
22311;BME280;11323;49.610;11.016;2022-08-05T16:00:22;63548.38;;;-146.54;100.00
22311;BME280;11323;49.610;11.016;2022-08-05T16:05:23;63548.38;;;-146.54;100.00
22311;BME280;11323;49.610;11.016;2022-08-05T16:10:23;63548.38;;;-146.54;100.00
22311;BME280;11323;49.610;11.016;2022-08-05T16:15:24;63548.38;;;-146.54;100.00
22311;BME280;11323;49.610;11.016;2022-08-05T16:20:25;63548.38;;;-146.54;100.00
22311;BME280;11323;49.610;11.016;2022-08-05T16:25:25;63548.38;;;-146.54;100.00
22311;BME280;11323;49.610;11.016;2022-08-05T16:30:25;63548.38;;;-146.54;100.00
22311;BME280;11323;49.610;11.016;2022-08-05T16:35:26;63548.38;;;-146.54;100.00
22311;BME280;11323;49.610;11.016;2022-08-05T16:40:27;63548.38;;;-146.54;100.00
22311;BME280;11323;49.610;11.016;2022-08-05T16:45:27;63548.38;;;-146.54;100.00
22311;BME280;11323;49.610;11.016;2022-08-05T16:50:27;63548.38;;;-146.54;100.00
22311;BME280;11323;49.610;11.016;2022-08-05T16:55:28;63548.38;;;-146.54;100.00
22311;BME280;11323;49.610;11.016;2022-08-05T17:00:29;63548.38;;;-146.54;100.00
22311;BME280;11323;49.610;11.016;2022-08-05T17:05:30;63548.38;;;-146.54;100.00
22311;BME280;11323;49.610;11.016;2022-08-05T17:10:30;63548.38;;;-146.54;100.00
22311;BME280;11323;49.610;11.016;2022-08-05T17:15:31;63548.38;;;-146.54;100.00
22311;BME280;11323;49.610;11.016;2022-08-05T17:20:31;63548.38;;;-146.54;100.00
22311;BME280;11323;49.610;11.016;2022-08-05T17:25:32;63548.38;;;-146.54;100.00
22311;BME280;11323;49.610;11.016;2022-08-05T17:30:32;63548.38;;;-146.54;100.00
22311;BME280;11323;49.610;11.016;2022-08-05T17:35:33;63548.38;;;-146.54;100.00
22311;BME280;11323;49.610;11.016;2022-08-05T17:40:34;63548.38;;;-146.54;100.00
22311;BME280;11323;49.610;11.016;2022-08-05T17:45:34;63548.38;;;-146.54;100.00
22311;BME280;11323;49.610;11.016;2022-08-05T17:50:35;63548.38;;;-146.54;100.00
22311;BME280;11323;49.610;11.016;2022-08-05T17:55:35;63548.38;;;-146.54;100.00
22311;BME280;11323;49.610;11.016;2022-08-05T18:00:37;63548.38;;;-146.54;100.00
22311;BME280;11323;49.610;11.016;2022-08-05T18:05:38;63548.38;;;-146.54;100.00
22311;BME280;11323;49.610;11.016;2022-08-05T18:10:39;63548.38;;;-146.54;100.00
22311;BME280;11323;49.610;11.016;2022-08-05T18:15:39;63548.38;;;-146.54;100.00
22311;BME280;11323;49.610;11.016;2022-08-05T18:20:39;63548.38;;;-146.54;100.00
22311;BME280;11323;49.610;11.016;2022-08-05T18:25:40;63548.38;;;-146.54;100.00
22311;BME280;11323;49.610;11.016;2022-08-05T18:30:40;63548.38;;;-146.54;100.00
22311;BME280;11323;49.610;11.016;2022-08-05T18:35:41;63548.38;;;-146.54;100.00
22311;BME280;11323;49.610;11.016;2022-08-05T18:40:43;63548.38;;;-146.54;100.00
22311;BME280;11323;49.610;11.016;2022-08-05T18:45:43;63548.38;;;-146.54;100.00
22311;BME280;11323;49.610;11.016;2022-08-05T18:50:43;63548.38;;;-146.54;100.00
22311;BME280;11323;49.610;11.016;2022-08-05T18:56:02;63548.38;;;-146.54;100.00
22311;BME280;11323;49.610;11.016;2022-08-05T19:01:03;63548.38;;;-146.54;100.00
22311;BME280;11323;49.610;11.016;2022-08-05T19:06:04;63548.38;;;-146.54;100.00
22311;BME280;11323;49.610;11.016;2022-08-05T19:11:04;63548.38;;;-146.54;100.00
22311;BME280;11323;49.610;11.016;2022-08-05T19:16:05;63548.38;;;-146.54;100.00
22311;BME280;11323;49.610;11.016;2022-08-05T19:21:06;63548.38;;;-146.54;100.00
22311;BME280;11323;49.610;11.016;2022-08-05T19:26:06;63548.38;;;-146.54;100.00
22311;BME280;11323;49.610;11.016;2022-08-05T19:31:07;63548.38;;;-146.54;100.00
22311;BME280;11323;49.610;11.016;2022-08-05T19:36:08;63548.38;;;-146.54;100.00
22311;BME280;11323;49.610;11.016;2022-08-05T19:41:09;63548.38;;;-146.54;100.00
22311;BME280;11323;49.610;11.016;2022-08-05T19:46:10;63548.38;;;-146.54;100.00
22311;BME280;11323;49.610;11.016;2022-08-05T19:51:10;63548.38;;;-146.54;100.00
22311;BME280;11323;49.610;11.016;2022-08-05T19:56:10;63548.38;;;-146.54;100.00
22311;BME280;11323;49.610;11.016;2022-08-05T20:01:11;63548.38;;;-146.54;100.00
22311;BME280;11323;49.610;11.016;2022-08-05T20:06:11;63548.38;;;-146.54;100.00
22311;BME280;11323;49.610;11.016;2022-08-05T20:11:12;63548.38;;;-146.54;100.00
22311;BME280;11323;49.610;11.016;2022-08-05T20:16:12;63548.38;;;-146.54;100.00
22311;BME280;11323;49.610;11.016;2022-08-05T20:21:14;63548.38;;;-146.54;100.00
22311;BME280;11323;49.610;11.016;2022-08-05T20:26:15;63548.38;;;-146.54;100.00
22311;BME280;11323;49.610;11.016;2022-08-05T20:31:16;63548.38;;;-146.54;100.00
22311;BME280;11323;49.610;11.016;2022-08-05T20:36:18;63548.38;;;-146.54;100.00
22311;BME280;11323;49.610;11.016;2022-08-05T20:41:19;63548.38;;;-146.54;100.00
22311;BME280;11323;49.610;11.016;2022-08-05T20:46:19;63548.38;;;-146.54;100.00
22311;BME280;11323;49.610;11.016;2022-08-05T20:51:19;98300.56;;;26.66;48.27
22311;BME280;11323;49.610;11.016;2022-08-05T20:56:20;98314.50;;;28.02;44.91
22311;BME280;11323;49.610;11.016;2022-08-05T21:01:20;98314.50;;;28.02;44.91
22311;BME280;11323;49.610;11.016;2022-08-05T21:06:21;98349.97;;;28.79;43.58
22311;BME280;11323;49.610;11.016;2022-08-05T21:11:21;98398.88;;;28.59;43.56
22311;BME280;11323;49.610;11.016;2022-08-05T21:16:23;98449.34;;;28.67;43.52
22311;BME280;11323;49.610;11.016;2022-08-05T21:21:23;98371.16;;;28.81;43.35
22311;BME280;11323;49.610;11.016;2022-08-05T21:26:24;98402.47;;;29.13;43.22
22311;BME280;11323;49.610;11.016;2022-08-05T21:31:25;98438.09;;;29.41;43.25
22311;BME280;11323;49.610;11.016;2022-08-05T21:36:25;63548.38;;;-146.54;100.00
22311;BME280;11323;49.610;11.016;2022-08-05T21:41:25;63548.38;;;-146.54;100.00
22311;BME280;11323;49.610;11.016;2022-08-05T21:46:26;63548.38;;;-146.54;100.00
22311;BME280;11323;49.610;11.016;2022-08-05T21:51:26;63548.38;;;-146.54;100.00
22311;BME280;11323;49.610;11.016;2022-08-05T21:56:27;63548.38;;;-146.54;100.00
22311;BME280;11323;49.610;11.016;2022-08-05T22:01:27;63548.38;;;-146.54;100.00
22311;BME280;11323;49.610;11.016;2022-08-05T22:06:28;98438.09;;;29.41;43.25
22311;BME280;11323;49.610;11.016;2022-08-05T22:11:28;63548.38;;;-146.54;100.00
22311;BME280;11323;49.610;11.016;2022-08-05T22:16:29;63548.38;;;-146.54;100.00
22311;BME280;11323;49.610;11.016;2022-08-05T22:21:30;63548.38;;;-146.54;100.00
22311;BME280;11323;49.610;11.016;2022-08-05T22:26:30;63548.38;;;-146.54;100.00
22311;BME280;11323;49.610;11.016;2022-08-05T22:31:49;63548.38;;;-146.54;100.00
22311;BME280;11323;49.610;11.016;2022-08-05T22:36:49;63548.38;;;-146.54;100.00
22311;BME280;11323;49.610;11.016;2022-08-05T22:41:50;63548.38;;;-146.54;100.00
22311;BME280;11323;49.610;11.016;2022-08-05T22:46:51;63548.38;;;-146.54;100.00
22311;BME280;11323;49.610;11.016;2022-08-05T22:51:51;63548.38;;;-146.54;100.00
22311;BME280;11323;49.610;11.016;2022-08-05T22:56:51;63548.38;;;-146.54;100.00
22311;BME280;11323;49.610;11.016;2022-08-05T23:01:52;63548.38;;;-146.54;100.00
22311;BME280;11323;49.610;11.016;2022-08-05T23:06:52;63548.38;;;-146.54;100.00
22311;BME280;11323;49.610;11.016;2022-08-05T23:11:53;63548.38;;;-146.54;100.00
22311;BME280;11323;49.610;11.016;2022-08-05T23:16:53;63548.38;;;-146.54;100.00
22311;BME280;11323;49.610;11.016;2022-08-05T23:22:12;63548.38;;;-146.54;100.00
22311;BME280;11323;49.610;11.016;2022-08-05T23:27:12;63548.38;;;-146.54;100.00
22311;BME280;11323;49.610;11.016;2022-08-05T23:32:13;63548.38;;;-146.54;100.00
22311;BME280;11323;49.610;11.016;2022-08-05T23:37:13;63548.38;;;-146.54;100.00
22311;BME280;11323;49.610;11.016;2022-08-05T23:42:13;63548.38;;;-146.54;100.00
22311;BME280;11323;49.610;11.016;2022-08-05T23:47:14;63548.38;;;-146.54;100.00
22311;BME280;11323;49.610;11.016;2022-08-05T23:52:15;63548.38;;;-146.54;100.00
22311;BME280;11323;49.610;11.016;2022-08-05T23:57:33;63548.38;;;-146.54;100.00
